sensor_id;sensor_type;location;lat;lon;timestamp;P1;durP1;ratioP1;P2;durP2;ratioP2
5217;SDS011;26539;51.064;6.346;2023-10-31T00:01:14;12.33;;;9.00;;
5217;SDS011;26539;51.064;6.346;2023-10-31T00:03:40;9.07;;;8.17;;
5217;SDS011;26539;51.064;6.346;2023-10-31T00:06:07;10.20;;;9.20;;
5217;SDS011;26539;51.064;6.346;2023-10-31T00:08:33;8.60;;;7.80;;
5217;SDS011;26539;51.064;6.346;2023-10-31T00:10:58;8.90;;;8.00;;
5217;SDS011;26539;51.064;6.346;2023-10-31T00:13:24;12.57;;;10.47;;
5217;SDS011;26539;51.064;6.346;2023-10-31T00:15:49;11.00;;;9.70;;
5217;SDS011;26539;51.064;6.346;2023-10-31T00:18:15;11.67;;;10.23;;
5217;SDS011;26539;51.064;6.346;2023-10-31T00:20:40;11.23;;;9.37;;
5217;SDS011;26539;51.064;6.346;2023-10-31T00:23:06;10.43;;;9.33;;
5217;SDS011;26539;51.064;6.346;2023-10-31T00:25:31;10.40;;;9.10;;
5217;SDS011;26539;51.064;6.346;2023-10-31T00:27:57;17.70;;;11.33;;
5217;SDS011;26539;51.064;6.346;2023-10-31T00:30:22;10.50;;;9.40;;
5217;SDS011;26539;51.064;6.346;2023-10-31T00:32:48;9.20;;;8.30;;
5217;SDS011;26539;51.064;6.346;2023-10-31T00:35:13;10.53;;;7.53;;
5217;SDS011;26539;51.064;6.346;2023-10-31T00:37:39;7.93;;;6.10;;
5217;SDS011;26539;51.064;6.346;2023-10-31T00:40:06;5.60;;;5.00;;
5217;SDS011;26539;51.064;6.346;2023-10-31T00:42:32;5.50;;;4.50;;
5217;SDS011;26539;51.064;6.346;2023-10-31T00:44:58;11.27;;;5.10;;
5217;SDS011;26539;51.064;6.346;2023-10-31T00:47:24;6.57;;;4.57;;
5217;SDS011;26539;51.064;6.346;2023-10-31T00:49:49;9.70;;;4.60;;
5217;SDS011;26539;51.064;6.346;2023-10-31T00:52:15;5.67;;;5.03;;
5217;SDS011;26539;51.064;6.346;2023-10-31T00:54:40;8.00;;;4.90;;
5217;SDS011;26539;51.064;6.346;2023-10-31T00:57:07;6.37;;;4.00;;
5217;SDS011;26539;51.064;6.346;2023-10-31T00:59:32;7.30;;;4.50;;
5217;SDS011;26539;51.064;6.346;2023-10-31T01:01:58;6.97;;;4.57;;
5217;SDS011;26539;51.064;6.346;2023-10-31T01:04:23;4.47;;;4.07;;
5217;SDS011;26539;51.064;6.346;2023-10-31T01:06:50;6.40;;;4.43;;
5217;SDS011;26539;51.064;6.346;2023-10-31T01:09:16;5.97;;;4.07;;
5217;SDS011;26539;51.064;6.346;2023-10-31T01:11:41;7.77;;;4.83;;
5217;SDS011;26539;51.064;6.346;2023-10-31T01:14:07;5.93;;;4.60;;
5217;SDS011;26539;51.064;6.346;2023-10-31T01:16:33;6.47;;;4.57;;
5217;SDS011;26539;51.064;6.346;2023-10-31T01:18:58;7.03;;;4.50;;
5217;SDS011;26539;51.064;6.346;2023-10-31T01:21:24;6.30;;;4.30;;
5217;SDS011;26539;51.064;6.346;2023-10-31T01:23:49;8.27;;;5.00;;
5217;SDS011;26539;51.064;6.346;2023-10-31T01:26:15;9.90;;;4.53;;
5217;SDS011;26539;51.064;6.346;2023-10-31T01:28:40;8.23;;;5.17;;
5217;SDS011;26539;51.064;6.346;2023-10-31T01:31:06;13.50;;;5.80;;
5217;SDS011;26539;51.064;6.346;2023-10-31T01:33:31;7.77;;;5.77;;
5217;SDS011;26539;51.064;6.346;2023-10-31T01:35:57;10.00;;;6.20;;
5217;SDS011;26539;51.064;6.346;2023-10-31T01:38:23;9.40;;;5.80;;
5217;SDS011;26539;51.064;6.346;2023-10-31T01:40:49;6.80;;;5.10;;
5217;SDS011;26539;51.064;6.346;2023-10-31T01:43:28;11.40;;;5.70;;
5217;SDS011;26539;51.064;6.346;2023-10-31T01:45:55;8.43;;;5.23;;
5217;SDS011;26539;51.064;6.346;2023-10-31T01:48:20;10.00;;;6.10;;
5217;SDS011;26539;51.064;6.346;2023-10-31T01:50:46;9.17;;;5.17;;
5217;SDS011;26539;51.064;6.346;2023-10-31T01:53:11;10.40;;;6.20;;
5217;SDS011;26539;51.064;6.346;2023-10-31T01:55:37;7.00;;;5.93;;
5217;SDS011;26539;51.064;6.346;2023-10-31T01:58:03;8.67;;;5.40;;
5217;SDS011;26539;51.064;6.346;2023-10-31T02:00:28;9.33;;;5.43;;
5217;SDS011;26539;51.064;6.346;2023-10-31T02:02:54;10.00;;;6.00;;
5217;SDS011;26539;51.064;6.346;2023-10-31T02:05:20;12.20;;;6.90;;
5217;SDS011;26539;51.064;6.346;2023-10-31T02:07:46;13.37;;;7.63;;
5217;SDS011;26539;51.064;6.346;2023-10-31T02:10:11;13.80;;;6.90;;
5217;SDS011;26539;51.064;6.346;2023-10-31T02:12:37;12.60;;;6.33;;
5217;SDS011;26539;51.064;6.346;2023-10-31T02:15:03;9.47;;;6.10;;
5217;SDS011;26539;51.064;6.346;2023-10-31T02:17:30;10.20;;;6.57;;
5217;SDS011;26539;51.064;6.346;2023-10-31T02:19:55;12.83;;;7.07;;
5217;SDS011;26539;51.064;6.346;2023-10-31T02:22:21;13.77;;;6.83;;
5217;SDS011;26539;51.064;6.346;2023-10-31T02:24:48;12.53;;;8.13;;
5217;SDS011;26539;51.064;6.346;2023-10-31T02:27:13;9.40;;;7.00;;
5217;SDS011;26539;51.064;6.346;2023-10-31T02:29:39;10.93;;;6.60;;
5217;SDS011;26539;51.064;6.346;2023-10-31T02:32:05;8.63;;;6.27;;
5217;SDS011;26539;51.064;6.346;2023-10-31T02:34:31;10.50;;;6.97;;
5217;SDS011;26539;51.064;6.346;2023-10-31T02:36:56;8.20;;;6.43;;
5217;SDS011;26539;51.064;6.346;2023-10-31T02:39:22;10.90;;;6.30;;
5217;SDS011;26539;51.064;6.346;2023-10-31T02:41:47;12.00;;;6.60;;
5217;SDS011;26539;51.064;6.346;2023-10-31T02:44:14;12.83;;;6.37;;
5217;SDS011;26539;51.064;6.346;2023-10-31T02:46:40;8.57;;;5.53;;
5217;SDS011;26539;51.064;6.346;2023-10-31T02:49:06;13.97;;;6.23;;
5217;SDS011;26539;51.064;6.346;2023-10-31T02:51:31;8.40;;;5.87;;
5217;SDS011;26539;51.064;6.346;2023-10-31T02:53:57;11.17;;;6.10;;
5217;SDS011;26539;51.064;6.346;2023-10-31T02:56:22;20.07;;;6.90;;
5217;SDS011;26539;51.064;6.346;2023-10-31T02:58:48;6.93;;;5.37;;
5217;SDS011;26539;51.064;6.346;2023-10-31T03:01:14;8.10;;;5.37;;
5217;SDS011;26539;51.064;6.346;2023-10-31T03:03:40;8.13;;;5.00;;
5217;SDS011;26539;51.064;6.346;2023-10-31T03:06:05;7.10;;;5.50;;
5217;SDS011;26539;51.064;6.346;2023-10-31T03:08:31;8.37;;;4.73;;
5217;SDS011;26539;51.064;6.346;2023-10-31T03:10:57;6.73;;;4.37;;
5217;SDS011;26539;51.064;6.346;2023-10-31T03:13:22;8.97;;;5.50;;
5217;SDS011;26539;51.064;6.346;2023-10-31T03:15:48;6.60;;;4.30;;
5217;SDS011;26539;51.064;6.346;2023-10-31T03:18:14;7.50;;;4.50;;
5217;SDS011;26539;51.064;6.346;2023-10-31T03:20:40;6.30;;;3.90;;
5217;SDS011;26539;51.064;6.346;2023-10-31T03:23:08;9.37;;;4.40;;
5217;SDS011;26539;51.064;6.346;2023-10-31T03:25:34;9.73;;;3.87;;
5217;SDS011;26539;51.064;6.346;2023-10-31T03:27:59;5.10;;;3.20;;
5217;SDS011;26539;51.064;6.346;2023-10-31T03:30:25;4.73;;;3.47;;
5217;SDS011;26539;51.064;6.346;2023-10-31T03:32:50;5.07;;;4.00;;
5217;SDS011;26539;51.064;6.346;2023-10-31T03:35:16;4.80;;;3.67;;
5217;SDS011;26539;51.064;6.346;2023-10-31T03:37:41;4.30;;;3.57;;
5217;SDS011;26539;51.064;6.346;2023-10-31T03:40:08;8.17;;;3.70;;
5217;SDS011;26539;51.064;6.346;2023-10-31T03:42:34;5.37;;;4.30;;
5217;SDS011;26539;51.064;6.346;2023-10-31T03:44:59;5.70;;;3.40;;
5217;SDS011;26539;51.064;6.346;2023-10-31T03:47:25;6.53;;;4.10;;
5217;SDS011;26539;51.064;6.346;2023-10-31T03:49:50;5.70;;;4.20;;
5217;SDS011;26539;51.064;6.346;2023-10-31T03:52:16;5.70;;;3.30;;
5217;SDS011;26539;51.064;6.346;2023-10-31T03:54:41;3.97;;;3.57;;
5217;SDS011;26539;51.064;6.346;2023-10-31T03:57:07;5.20;;;4.70;;
5217;SDS011;26539;51.064;6.346;2023-10-31T03:59:32;8.47;;;4.67;;
5217;SDS011;26539;51.064;6.346;2023-10-31T04:01:58;4.97;;;4.40;;
5217;SDS011;26539;51.064;6.346;2023-10-31T04:04:23;6.10;;;4.23;;
5217;SDS011;26539;51.064;6.346;2023-10-31T04:06:49;7.27;;;4.93;;
5217;SDS011;26539;51.064;6.346;2023-10-31T04:09:14;6.10;;;4.50;;
5217;SDS011;26539;51.064;6.346;2023-10-31T04:11:40;5.47;;;4.83;;
5217;SDS011;26539;51.064;6.346;2023-10-31T04:14:06;6.67;;;5.47;;
5217;SDS011;26539;51.064;6.346;2023-10-31T04:16:32;7.33;;;4.57;;
5217;SDS011;26539;51.064;6.346;2023-10-31T04:19:02;4.87;;;4.43;;
5217;SDS011;26539;51.064;6.346;2023-10-31T04:21:27;6.80;;;5.10;;
5217;SDS011;26539;51.064;6.346;2023-10-31T04:23:53;6.00;;;5.40;;
5217;SDS011;26539;51.064;6.346;2023-10-31T04:26:18;7.10;;;5.90;;
5217;SDS011;26539;51.064;6.346;2023-10-31T04:28:44;5.97;;;5.10;;
5217;SDS011;26539;51.064;6.346;2023-10-31T04:31:09;6.30;;;4.80;;
5217;SDS011;26539;51.064;6.346;2023-10-31T04:33:35;7.33;;;4.93;;
5217;SDS011;26539;51.064;6.346;2023-10-31T04:36:00;6.70;;;5.03;;
5217;SDS011;26539;51.064;6.346;2023-10-31T04:38:27;5.80;;;5.20;;
5217;SDS011;26539;51.064;6.346;2023-10-31T04:40:52;7.57;;;4.77;;
5217;SDS011;26539;51.064;6.346;2023-10-31T04:43:18;6.10;;;5.50;;
5217;SDS011;26539;51.064;6.346;2023-10-31T04:45:43;8.00;;;4.90;;
5217;SDS011;26539;51.064;6.346;2023-10-31T04:48:09;5.60;;;4.80;;
5217;SDS011;26539;51.064;6.346;2023-10-31T04:50:34;5.33;;;4.70;;
5217;SDS011;26539;51.064;6.346;2023-10-31T04:53:00;6.17;;;5.57;;
5217;SDS011;26539;51.064;6.346;2023-10-31T04:55:26;6.30;;;4.23;;
5217;SDS011;26539;51.064;6.346;2023-10-31T04:57:51;4.47;;;4.07;;
5217;SDS011;26539;51.064;6.346;2023-10-31T05:00:17;5.17;;;4.30;;
5217;SDS011;26539;51.064;6.346;2023-10-31T05:02:42;5.27;;;4.77;;
5217;SDS011;26539;51.064;6.346;2023-10-31T05:05:08;4.47;;;4.07;;
5217;SDS011;26539;51.064;6.346;2023-10-31T05:07:33;6.40;;;4.80;;
5217;SDS011;26539;51.064;6.346;2023-10-31T05:09:59;6.13;;;4.33;;
5217;SDS011;26539;51.064;6.346;2023-10-31T05:12:25;7.50;;;5.30;;
5217;SDS011;26539;51.064;6.346;2023-10-31T05:14:50;7.63;;;4.87;;
5217;SDS011;26539;51.064;6.346;2023-10-31T05:17:16;5.20;;;4.70;;
5217;SDS011;26539;51.064;6.346;2023-10-31T05:19:41;6.17;;;4.50;;
5217;SDS011;26539;51.064;6.346;2023-10-31T05:22:07;4.90;;;3.87;;
5217;SDS011;26539;51.064;6.346;2023-10-31T05:24:32;6.10;;;4.80;;
5217;SDS011;26539;51.064;6.346;2023-10-31T05:26:58;5.23;;;4.30;;
5217;SDS011;26539;51.064;6.346;2023-10-31T05:29:23;4.70;;;4.07;;
5217;SDS011;26539;51.064;6.346;2023-10-31T05:31:49;5.00;;;4.30;;
5217;SDS011;26539;51.064;6.346;2023-10-31T05:34:14;7.07;;;4.27;;
5217;SDS011;26539;51.064;6.346;2023-10-31T05:36:40;4.60;;;4.20;;
5217;SDS011;26539;51.064;6.346;2023-10-31T05:39:05;6.33;;;4.60;;
5217;SDS011;26539;51.064;6.346;2023-10-31T05:41:34;8.03;;;4.80;;
5217;SDS011;26539;51.064;6.346;2023-10-31T05:43:59;6.67;;;5.07;;
5217;SDS011;26539;51.064;6.346;2023-10-31T05:46:25;5.50;;;5.00;;
5217;SDS011;26539;51.064;6.346;2023-10-31T05:48:51;6.93;;;5.23;;
5217;SDS011;26539;51.064;6.346;2023-10-31T05:51:17;5.00;;;4.50;;
5217;SDS011;26539;51.064;6.346;2023-10-31T05:53:45;5.60;;;4.70;;
5217;SDS011;26539;51.064;6.346;2023-10-31T05:56:12;5.93;;;4.80;;
5217;SDS011;26539;51.064;6.346;2023-10-31T05:58:39;7.40;;;4.80;;
5217;SDS011;26539;51.064;6.346;2023-10-31T06:01:05;6.03;;;5.43;;
5217;SDS011;26539;51.064;6.346;2023-10-31T06:03:31;6.03;;;5.43;;
5217;SDS011;26539;51.064;6.346;2023-10-31T06:05:57;5.67;;;4.60;;
5217;SDS011;26539;51.064;6.346;2023-10-31T06:08:23;6.77;;;6.07;;
5217;SDS011;26539;51.064;6.346;2023-10-31T06:10:49;6.80;;;5.43;;
5217;SDS011;26539;51.064;6.346;2023-10-31T06:13:15;5.97;;;4.80;;
5217;SDS011;26539;51.064;6.346;2023-10-31T06:15:41;10.60;;;6.03;;
5217;SDS011;26539;51.064;6.346;2023-10-31T06:18:07;9.07;;;6.57;;
5217;SDS011;26539;51.064;6.346;2023-10-31T06:20:32;6.83;;;6.13;;
5217;SDS011;26539;51.064;6.346;2023-10-31T06:23:00;7.63;;;6.37;;
5217;SDS011;26539;51.064;6.346;2023-10-31T06:25:28;6.53;;;5.90;;
5217;SDS011;26539;51.064;6.346;2023-10-31T06:27:53;7.17;;;6.47;;
5217;SDS011;26539;51.064;6.346;2023-10-31T06:30:19;9.30;;;6.50;;
5217;SDS011;26539;51.064;6.346;2023-10-31T06:32:44;6.97;;;6.07;;
5217;SDS011;26539;51.064;6.346;2023-10-31T06:35:10;7.43;;;6.60;;
5217;SDS011;26539;51.064;6.346;2023-10-31T06:37:35;9.77;;;6.90;;
5217;SDS011;26539;51.064;6.346;2023-10-31T06:40:01;8.03;;;6.97;;
5217;SDS011;26539;51.064;6.346;2023-10-31T06:42:27;9.13;;;6.50;;
5217;SDS011;26539;51.064;6.346;2023-10-31T06:44:53;11.13;;;7.20;;
5217;SDS011;26539;51.064;6.346;2023-10-31T06:47:19;8.83;;;6.50;;
5217;SDS011;26539;51.064;6.346;2023-10-31T06:49:44;8.70;;;7.80;;
5217;SDS011;26539;51.064;6.346;2023-10-31T06:52:10;9.43;;;8.00;;
5217;SDS011;26539;51.064;6.346;2023-10-31T06:54:35;10.43;;;8.00;;
5217;SDS011;26539;51.064;6.346;2023-10-31T06:57:01;10.50;;;8.53;;
5217;SDS011;26539;51.064;6.346;2023-10-31T06:59:27;8.70;;;7.30;;
5217;SDS011;26539;51.064;6.346;2023-10-31T07:01:54;8.90;;;7.80;;
5217;SDS011;26539;51.064;6.346;2023-10-31T07:04:20;10.40;;;8.20;;
5217;SDS011;26539;51.064;6.346;2023-10-31T07:06:45;9.23;;;8.33;;
5217;SDS011;26539;51.064;6.346;2023-10-31T07:09:11;10.63;;;7.60;;
5217;SDS011;26539;51.064;6.346;2023-10-31T07:11:36;6.90;;;5.87;;
5217;SDS011;26539;51.064;6.346;2023-10-31T07:14:02;8.87;;;6.63;;
5217;SDS011;26539;51.064;6.346;2023-10-31T07:16:28;8.00;;;7.17;;
5217;SDS011;26539;51.064;6.346;2023-10-31T07:18:54;6.80;;;6.10;;
5217;SDS011;26539;51.064;6.346;2023-10-31T07:21:20;6.63;;;5.93;;
5217;SDS011;26539;51.064;6.346;2023-10-31T07:23:45;7.03;;;5.40;;
5217;SDS011;26539;51.064;6.346;2023-10-31T07:26:11;7.90;;;6.10;;
5217;SDS011;26539;51.064;6.346;2023-10-31T07:28:36;7.00;;;6.00;;
5217;SDS011;26539;51.064;6.346;2023-10-31T07:31:02;7.70;;;6.90;;
5217;SDS011;26539;51.064;6.346;2023-10-31T07:33:28;11.83;;;6.00;;
5217;SDS011;26539;51.064;6.346;2023-10-31T07:35:54;7.70;;;5.33;;
5217;SDS011;26539;51.064;6.346;2023-10-31T07:38:19;7.87;;;6.20;;
5217;SDS011;26539;51.064;6.346;2023-10-31T07:40:45;6.97;;;6.07;;
5217;SDS011;26539;51.064;6.346;2023-10-31T07:43:10;8.00;;;6.27;;
5217;SDS011;26539;51.064;6.346;2023-10-31T07:45:36;8.07;;;6.47;;
5217;SDS011;26539;51.064;6.346;2023-10-31T07:48:01;7.77;;;6.20;;
5217;SDS011;26539;51.064;6.346;2023-10-31T07:50:27;7.70;;;6.03;;
5217;SDS011;26539;51.064;6.346;2023-10-31T07:52:52;8.27;;;7.00;;
5217;SDS011;26539;51.064;6.346;2023-10-31T07:55:18;7.47;;;6.57;;
5217;SDS011;26539;51.064;6.346;2023-10-31T07:57:44;10.27;;;6.73;;
5217;SDS011;26539;51.064;6.346;2023-10-31T08:00:10;11.57;;;6.43;;
5217;SDS011;26539;51.064;6.346;2023-10-31T08:02:36;8.10;;;6.60;;
5217;SDS011;26539;51.064;6.346;2023-10-31T08:05:02;7.43;;;6.50;;
5217;SDS011;26539;51.064;6.346;2023-10-31T08:07:27;9.00;;;6.60;;
5217;SDS011;26539;51.064;6.346;2023-10-31T08:09:55;10.07;;;7.10;;
5217;SDS011;26539;51.064;6.346;2023-10-31T08:12:21;6.60;;;6.00;;
5217;SDS011;26539;51.064;6.346;2023-10-31T08:14:47;9.30;;;7.33;;
5217;SDS011;26539;51.064;6.346;2023-10-31T08:17:13;7.17;;;6.20;;
5217;SDS011;26539;51.064;6.346;2023-10-31T08:19:38;7.00;;;6.30;;
5217;SDS011;26539;51.064;6.346;2023-10-31T08:22:04;7.80;;;6.03;;
5217;SDS011;26539;51.064;6.346;2023-10-31T08:24:29;6.87;;;5.70;;
5217;SDS011;26539;51.064;6.346;2023-10-31T08:26:55;7.43;;;5.43;;
5217;SDS011;26539;51.064;6.346;2023-10-31T08:29:20;7.07;;;5.60;;
5217;SDS011;26539;51.064;6.346;2023-10-31T08:31:46;8.97;;;6.10;;
5217;SDS011;26539;51.064;6.346;2023-10-31T08:34:12;9.03;;;5.63;;
5217;SDS011;26539;51.064;6.346;2023-10-31T08:36:37;8.83;;;5.50;;
5217;SDS011;26539;51.064;6.346;2023-10-31T08:39:03;5.27;;;4.77;;
5217;SDS011;26539;51.064;6.346;2023-10-31T08:41:28;5.10;;;4.27;;
5217;SDS011;26539;51.064;6.346;2023-10-31T08:43:54;5.87;;;4.20;;
5217;SDS011;26539;51.064;6.346;2023-10-31T08:46:19;6.03;;;4.07;;
5217;SDS011;26539;51.064;6.346;2023-10-31T08:48:46;8.00;;;4.17;;
5217;SDS011;26539;51.064;6.346;2023-10-31T08:51:12;5.57;;;4.00;;
5217;SDS011;26539;51.064;6.346;2023-10-31T08:53:38;6.27;;;4.73;;
5217;SDS011;26539;51.064;6.346;2023-10-31T08:56:03;5.43;;;4.00;;
5217;SDS011;26539;51.064;6.346;2023-10-31T08:58:29;3.83;;;3.43;;
5217;SDS011;26539;51.064;6.346;2023-10-31T09:00:54;8.40;;;3.20;;
5217;SDS011;26539;51.064;6.346;2023-10-31T09:03:20;6.40;;;3.20;;
5217;SDS011;26539;51.064;6.346;2023-10-31T09:05:45;3.10;;;2.30;;
5217;SDS011;26539;51.064;6.346;2023-10-31T09:08:11;3.07;;;2.20;;
5217;SDS011;26539;51.064;6.346;2023-10-31T09:10:37;2.60;;;2.37;;
5217;SDS011;26539;51.064;6.346;2023-10-31T09:13:07;2.00;;;1.73;;
5217;SDS011;26539;51.064;6.346;2023-10-31T09:15:33;3.80;;;2.20;;
5217;SDS011;26539;51.064;6.346;2023-10-31T09:17:58;2.60;;;1.77;;
5217;SDS011;26539;51.064;6.346;2023-10-31T09:20:24;2.30;;;2.07;;
5217;SDS011;26539;51.064;6.346;2023-10-31T09:22:50;2.30;;;1.60;;
5217;SDS011;26539;51.064;6.346;2023-10-31T09:25:15;4.63;;;1.70;;
5217;SDS011;26539;51.064;6.346;2023-10-31T09:27:41;2.47;;;1.93;;
5217;SDS011;26539;51.064;6.346;2023-10-31T09:30:07;2.10;;;1.53;;
5217;SDS011;26539;51.064;6.346;2023-10-31T09:32:32;3.03;;;1.73;;
5217;SDS011;26539;51.064;6.346;2023-10-31T09:34:58;2.27;;;1.90;;
5217;SDS011;26539;51.064;6.346;2023-10-31T09:37:24;3.27;;;2.10;;
5217;SDS011;26539;51.064;6.346;2023-10-31T09:39:49;3.20;;;1.90;;
5217;SDS011;26539;51.064;6.346;2023-10-31T09:42:14;6.63;;;2.40;;
5217;SDS011;26539;51.064;6.346;2023-10-31T09:44:40;6.00;;;2.47;;
5217;SDS011;26539;51.064;6.346;2023-10-31T09:47:06;5.03;;;2.37;;
5217;SDS011;26539;51.064;6.346;2023-10-31T09:49:32;2.93;;;2.00;;
5217;SDS011;26539;51.064;6.346;2023-10-31T09:51:58;4.40;;;1.93;;
5217;SDS011;26539;51.064;6.346;2023-10-31T09:54:24;2.87;;;1.80;;
5217;SDS011;26539;51.064;6.346;2023-10-31T09:56:50;3.57;;;2.00;;
5217;SDS011;26539;51.064;6.346;2023-10-31T09:59:16;2.70;;;1.80;;
5217;SDS011;26539;51.064;6.346;2023-10-31T10:01:42;2.03;;;1.70;;
5217;SDS011;26539;51.064;6.346;2023-10-31T10:04:08;1.77;;;1.57;;
5217;SDS011;26539;51.064;6.346;2023-10-31T10:06:34;3.23;;;2.13;;
5217;SDS011;26539;51.064;6.346;2023-10-31T10:08:59;5.60;;;2.07;;
5217;SDS011;26539;51.064;6.346;2023-10-31T10:11:29;5.17;;;2.07;;
5217;SDS011;26539;51.064;6.346;2023-10-31T10:13:54;3.23;;;2.10;;
5217;SDS011;26539;51.064;6.346;2023-10-31T10:16:31;3.80;;;2.07;;
5217;SDS011;26539;51.064;6.346;2023-10-31T10:19:09;4.57;;;2.00;;
5217;SDS011;26539;51.064;6.346;2023-10-31T10:21:47;5.73;;;2.63;;
5217;SDS011;26539;51.064;6.346;2023-10-31T10:24:18;5.43;;;2.70;;
5217;SDS011;26539;51.064;6.346;2023-10-31T10:26:44;4.20;;;1.97;;
5217;SDS011;26539;51.064;6.346;2023-10-31T10:29:10;3.43;;;1.70;;
5217;SDS011;26539;51.064;6.346;2023-10-31T10:31:36;3.70;;;2.40;;
5217;SDS011;26539;51.064;6.346;2023-10-31T10:34:01;4.70;;;2.10;;
5217;SDS011;26539;51.064;6.346;2023-10-31T10:36:27;3.33;;;2.20;;
5217;SDS011;26539;51.064;6.346;2023-10-31T10:38:55;1.97;;;1.60;;
5217;SDS011;26539;51.064;6.346;2023-10-31T10:41:22;2.47;;;1.77;;
5217;SDS011;26539;51.064;6.346;2023-10-31T10:43:55;4.43;;;1.50;;
5217;SDS011;26539;51.064;6.346;2023-10-31T10:46:24;3.70;;;2.23;;
5217;SDS011;26539;51.064;6.346;2023-10-31T10:48:52;2.73;;;1.80;;
5217;SDS011;26539;51.064;6.346;2023-10-31T10:51:24;3.73;;;1.60;;
5217;SDS011;26539;51.064;6.346;2023-10-31T10:53:57;2.23;;;1.80;;
5217;SDS011;26539;51.064;6.346;2023-10-31T10:56:39;5.17;;;2.17;;
5217;SDS011;26539;51.064;6.346;2023-10-31T10:59:20;2.30;;;1.40;;
5217;SDS011;26539;51.064;6.346;2023-10-31T11:01:51;3.23;;;1.80;;
5217;SDS011;26539;51.064;6.346;2023-10-31T11:04:17;3.33;;;1.90;;
5217;SDS011;26539;51.064;6.346;2023-10-31T11:06:43;4.07;;;2.30;;
5217;SDS011;26539;51.064;6.346;2023-10-31T11:09:10;4.97;;;1.90;;
5217;SDS011;26539;51.064;6.346;2023-10-31T11:11:37;4.40;;;2.00;;
5217;SDS011;26539;51.064;6.346;2023-10-31T11:14:04;4.97;;;1.80;;
5217;SDS011;26539;51.064;6.346;2023-10-31T11:16:38;3.23;;;2.20;;
5217;SDS011;26539;51.064;6.346;2023-10-31T11:19:08;2.40;;;2.17;;
5217;SDS011;26539;51.064;6.346;2023-10-31T11:21:35;3.73;;;2.20;;
5217;SDS011;26539;51.064;6.346;2023-10-31T11:24:01;5.13;;;1.80;;
5217;SDS011;26539;51.064;6.346;2023-10-31T11:26:29;2.40;;;1.77;;
5217;SDS011;26539;51.064;6.346;2023-10-31T11:29:05;2.10;;;1.70;;
5217;SDS011;26539;51.064;6.346;2023-10-31T11:31:32;2.63;;;2.20;;
5217;SDS011;26539;51.064;6.346;2023-10-31T11:34:00;2.73;;;1.90;;
5217;SDS011;26539;51.064;6.346;2023-10-31T11:36:26;8.77;;;2.00;;
5217;SDS011;26539;51.064;6.346;2023-10-31T11:39:09;5.77;;;1.90;;
5217;SDS011;26539;51.064;6.346;2023-10-31T11:41:39;3.27;;;1.93;;
5217;SDS011;26539;51.064;6.346;2023-10-31T11:44:05;9.20;;;2.00;;
5217;SDS011;26539;51.064;6.346;2023-10-31T11:46:30;7.00;;;2.10;;
5217;SDS011;26539;51.064;6.346;2023-10-31T11:48:56;4.93;;;1.80;;
5217;SDS011;26539;51.064;6.346;2023-10-31T11:51:23;3.20;;;1.77;;
5217;SDS011;26539;51.064;6.346;2023-10-31T11:53:48;3.87;;;1.73;;
5217;SDS011;26539;51.064;6.346;2023-10-31T11:56:17;4.40;;;1.87;;
5217;SDS011;26539;51.064;6.346;2023-10-31T11:59:01;2.70;;;1.60;;
5217;SDS011;26539;51.064;6.346;2023-10-31T12:01:28;4.93;;;2.10;;
5217;SDS011;26539;51.064;6.346;2023-10-31T12:03:54;4.23;;;1.80;;
5217;SDS011;26539;51.064;6.346;2023-10-31T12:06:19;2.30;;;1.70;;
5217;SDS011;26539;51.064;6.346;2023-10-31T12:08:46;5.10;;;1.60;;
5217;SDS011;26539;51.064;6.346;2023-10-31T12:11:16;2.73;;;1.63;;
5217;SDS011;26539;51.064;6.346;2023-10-31T12:14:03;2.80;;;1.80;;
5217;SDS011;26539;51.064;6.346;2023-10-31T12:16:33;3.77;;;1.80;;
5217;SDS011;26539;51.064;6.346;2023-10-31T12:19:03;3.37;;;1.47;;
5217;SDS011;26539;51.064;6.346;2023-10-31T12:21:36;6.13;;;1.67;;
5217;SDS011;26539;51.064;6.346;2023-10-31T12:24:21;4.77;;;2.20;;
5217;SDS011;26539;51.064;6.346;2023-10-31T12:26:46;4.60;;;1.40;;
5217;SDS011;26539;51.064;6.346;2023-10-31T12:29:13;1.67;;;1.10;;
5217;SDS011;26539;51.064;6.346;2023-10-31T12:31:47;3.87;;;1.63;;
5217;SDS011;26539;51.064;6.346;2023-10-31T12:34:14;2.03;;;0.90;;
5217;SDS011;26539;51.064;6.346;2023-10-31T12:36:41;3.00;;;1.33;;
5217;SDS011;26539;51.064;6.346;2023-10-31T12:39:10;5.37;;;1.83;;
5217;SDS011;26539;51.064;6.346;2023-10-31T12:41:37;6.17;;;2.20;;
5217;SDS011;26539;51.064;6.346;2023-10-31T12:44:04;3.40;;;1.50;;
5217;SDS011;26539;51.064;6.346;2023-10-31T12:46:31;2.70;;;1.30;;
5217;SDS011;26539;51.064;6.346;2023-10-31T12:48:57;4.07;;;1.80;;
5217;SDS011;26539;51.064;6.346;2023-10-31T12:51:24;4.10;;;1.43;;
5217;SDS011;26539;51.064;6.346;2023-10-31T12:53:50;3.50;;;1.40;;
5217;SDS011;26539;51.064;6.346;2023-10-31T12:59:24;7.10;;;1.43;;
5217;SDS011;26539;51.064;6.346;2023-10-31T13:01:49;4.10;;;2.00;;
5217;SDS011;26539;51.064;6.346;2023-10-31T13:04:23;5.83;;;1.30;;
5217;SDS011;26539;51.064;6.346;2023-10-31T13:06:57;4.13;;;1.57;;
5217;SDS011;26539;51.064;6.346;2023-10-31T13:09:33;6.37;;;1.90;;
5217;SDS011;26539;51.064;6.346;2023-10-31T13:12:01;4.00;;;1.67;;
5217;SDS011;26539;51.064;6.346;2023-10-31T13:14:31;8.13;;;2.00;;
5217;SDS011;26539;51.064;6.346;2023-10-31T13:16:57;4.83;;;1.53;;
5217;SDS011;26539;51.064;6.346;2023-10-31T13:19:23;4.50;;;1.73;;
5217;SDS011;26539;51.064;6.346;2023-10-31T13:21:49;5.43;;;2.70;;
5217;SDS011;26539;51.064;6.346;2023-10-31T13:24:14;8.80;;;1.73;;
5217;SDS011;26539;51.064;6.346;2023-10-31T13:26:40;4.30;;;1.70;;
5217;SDS011;26539;51.064;6.346;2023-10-31T13:29:06;3.40;;;1.60;;
5217;SDS011;26539;51.064;6.346;2023-10-31T13:31:31;5.73;;;2.10;;
5217;SDS011;26539;51.064;6.346;2023-10-31T13:33:57;9.50;;;2.50;;
5217;SDS011;26539;51.064;6.346;2023-10-31T13:36:22;5.07;;;1.70;;
5217;SDS011;26539;51.064;6.346;2023-10-31T13:38:48;3.93;;;1.60;;
5217;SDS011;26539;51.064;6.346;2023-10-31T13:41:14;8.50;;;2.03;;
5217;SDS011;26539;51.064;6.346;2023-10-31T13:43:39;5.20;;;2.00;;
5217;SDS011;26539;51.064;6.346;2023-10-31T13:46:05;4.10;;;1.50;;
5217;SDS011;26539;51.064;6.346;2023-10-31T13:48:31;10.33;;;1.80;;
5217;SDS011;26539;51.064;6.346;2023-10-31T13:50:57;3.13;;;1.50;;
5217;SDS011;26539;51.064;6.346;2023-10-31T13:53:22;2.63;;;1.40;;
5217;SDS011;26539;51.064;6.346;2023-10-31T13:55:48;5.13;;;1.57;;
5217;SDS011;26539;51.064;6.346;2023-10-31T13:58:13;5.43;;;1.77;;
5217;SDS011;26539;51.064;6.346;2023-10-31T14:00:39;4.77;;;1.73;;
5217;SDS011;26539;51.064;6.346;2023-10-31T14:03:04;2.60;;;1.37;;
5217;SDS011;26539;51.064;6.346;2023-10-31T14:05:30;4.53;;;2.10;;
5217;SDS011;26539;51.064;6.346;2023-10-31T14:07:56;7.40;;;1.87;;
5217;SDS011;26539;51.064;6.346;2023-10-31T14:10:21;2.60;;;1.40;;
5217;SDS011;26539;51.064;6.346;2023-10-31T14:12:48;2.60;;;1.63;;
5217;SDS011;26539;51.064;6.346;2023-10-31T14:15:13;7.53;;;2.23;;
5217;SDS011;26539;51.064;6.346;2023-10-31T14:17:39;6.10;;;1.67;;
5217;SDS011;26539;51.064;6.346;2023-10-31T14:20:05;7.43;;;1.60;;
5217;SDS011;26539;51.064;6.346;2023-10-31T14:22:31;6.77;;;1.53;;
5217;SDS011;26539;51.064;6.346;2023-10-31T14:24:56;5.47;;;1.60;;
5217;SDS011;26539;51.064;6.346;2023-10-31T14:27:22;4.43;;;1.20;;
5217;SDS011;26539;51.064;6.346;2023-10-31T14:29:48;5.20;;;1.67;;
5217;SDS011;26539;51.064;6.346;2023-10-31T14:32:13;5.47;;;1.60;;
5217;SDS011;26539;51.064;6.346;2023-10-31T14:34:39;5.33;;;1.80;;
5217;SDS011;26539;51.064;6.346;2023-10-31T14:37:04;4.70;;;1.30;;
5217;SDS011;26539;51.064;6.346;2023-10-31T14:39:31;3.23;;;1.90;;
5217;SDS011;26539;51.064;6.346;2023-10-31T14:41:57;5.00;;;1.70;;
5217;SDS011;26539;51.064;6.346;2023-10-31T14:44:22;6.77;;;1.80;;
5217;SDS011;26539;51.064;6.346;2023-10-31T14:46:48;4.37;;;1.60;;
5217;SDS011;26539;51.064;6.346;2023-10-31T14:49:13;11.13;;;2.50;;
5217;SDS011;26539;51.064;6.346;2023-10-31T14:51:39;6.43;;;1.60;;
5217;SDS011;26539;51.064;6.346;2023-10-31T14:54:06;2.13;;;1.40;;
5217;SDS011;26539;51.064;6.346;2023-10-31T14:56:32;3.77;;;1.40;;
5217;SDS011;26539;51.064;6.346;2023-10-31T14:58:59;4.50;;;1.67;;